createdAt,value
2023-01-29T00:02:58.493Z,99555.34
2023-01-29T00:05:42.547Z,99559.14
2023-01-29T00:08:37.613Z,99563.11
2023-01-29T00:11:21.354Z,99557.39
2023-01-29T00:14:15.310Z,99554.84
2023-01-29T00:17:10.249Z,99556.52
2023-01-29T00:20:04.111Z,99563.80
2023-01-29T00:22:57.749Z,99564.33
2023-01-29T00:25:51.724Z,99569.67
2023-01-29T00:28:45.698Z,99565.41
2023-01-29T00:31:39.717Z,99562.94
2023-01-29T00:34:33.562Z,99569.08
2023-01-29T00:37:27.491Z,99571.38
2023-01-29T00:40:21.580Z,99576.74
2023-01-29T00:43:32.914Z,99577.73
2023-01-29T00:46:26.886Z,99572.50
2023-01-29T00:49:20.541Z,99578.63
2023-01-29T00:52:26.419Z,99576.71
2023-01-29T00:55:20.424Z,99573.64
2023-01-29T00:57:57.789Z,99579.42
2023-01-29T01:00:52.006Z,99582.25
2023-01-29T01:03:45.806Z,99586.40
2023-01-29T01:06:43.017Z,99586.17
2023-01-29T01:09:55.200Z,99588.17
2023-01-29T01:12:49.114Z,99592.66
2023-01-29T01:15:44.852Z,99591.44
2023-01-29T01:18:39.113Z,99586.45
2023-01-29T01:21:33.325Z,99585.54
2023-01-29T01:24:30.178Z,99582.54
2023-01-29T01:27:23.995Z,99580.92
2023-01-29T01:30:19.424Z,99577.98
2023-01-29T01:33:13.229Z,99576.83
2023-01-29T01:36:09.832Z,99571.77
2023-01-29T01:39:03.580Z,99574.78
2023-01-29T01:41:57.734Z,99580.83
2023-01-29T01:45:01.119Z,99569.55
2023-01-29T01:48:01.369Z,99570.02
2023-01-29T01:51:00.960Z,99567.91
2023-01-29T01:54:02.726Z,99562.23
2023-01-29T01:57:09.240Z,99557.52
2023-01-29T02:00:11.549Z,99555.29
2023-01-29T02:03:23.426Z,99546.04
2023-01-29T02:06:34.747Z,99538.14
2023-01-29T02:09:36.099Z,99539.78
2023-01-29T02:12:31.546Z,99548.48
2023-01-29T02:15:25.239Z,99556.85
2023-01-29T02:18:21.983Z,99551.92
2023-01-29T02:21:52.408Z,99544.77
2023-01-29T02:25:09.739Z,99545.67
2023-01-29T02:28:38.017Z,99541.95
2023-01-29T02:31:42.558Z,99535.83
2023-01-29T02:35:05.320Z,99536.00
2023-01-29T02:38:10.754Z,99536.22
2023-01-29T02:41:16.129Z,99531.63
2023-01-29T02:44:17.874Z,99537.17
2023-01-29T02:47:20.784Z,99547.41
2023-01-29T02:50:22.340Z,99549.04
2023-01-29T02:53:20.993Z,99550.34
2023-01-29T02:56:29.756Z,99558.45
2023-01-29T02:59:28.694Z,99560.35
2023-01-29T03:02:36.912Z,99558.19
2023-01-29T03:05:38.280Z,99562.73
2023-01-29T03:08:43.283Z,99556.09
2023-01-29T03:11:45.476Z,99553.08
2023-01-29T03:14:55.759Z,99557.35
2023-01-29T03:17:59.809Z,99570.76
2023-01-29T03:20:58.467Z,99572.20
2023-01-29T03:24:10.670Z,99583.00
2023-01-29T03:27:28.760Z,99579.34
2023-01-29T03:30:46.003Z,99582.27
2023-01-29T03:33:48.305Z,99578.41
2023-01-29T03:36:55.897Z,99572.45
2023-01-29T03:39:49.817Z,99570.50
2023-01-29T03:43:02.815Z,99568.73
2023-01-29T03:46:07.095Z,99570.84
2023-01-29T03:49:18.213Z,99567.42
2023-01-29T03:52:23.022Z,99562.00
2023-01-29T03:55:22.633Z,99555.20
2023-01-29T03:58:26.804Z,99550.25
2023-01-29T04:01:21.854Z,99551.04
2023-01-29T04:04:20.347Z,99548.56
2023-01-29T04:07:18.565Z,99552.88
2023-01-29T04:10:18.399Z,99549.19
2023-01-29T04:13:16.755Z,99555.98
2023-01-29T04:16:16.756Z,99555.31
2023-01-29T04:19:10.969Z,99553.17
2023-01-29T04:22:08.809Z,99552.84
2023-01-29T04:25:08.471Z,99539.89
2023-01-29T04:28:17.840Z,99536.70
2023-01-29T04:31:15.340Z,99527.27
2023-01-29T04:34:22.518Z,99516.40
2023-01-29T04:37:24.327Z,99509.02
2023-01-29T04:40:27.798Z,99506.23
2023-01-29T04:43:09.288Z,99504.29
2023-01-29T04:46:15.583Z,99505.51
2023-01-29T04:49:28.905Z,99493.94
2023-01-29T04:52:33.462Z,99482.48
2023-01-29T04:55:39.972Z,99481.59
2023-01-29T04:58:39.121Z,99477.83
2023-01-29T05:01:35.143Z,99479.24
2023-01-29T05:04:26.004Z,99480.86
2023-01-29T05:07:20.947Z,99490.36
2023-01-29T05:10:20.439Z,99489.22
2023-01-29T05:13:18.191Z,99488.49
2023-01-29T05:16:23.952Z,99492.11
2023-01-29T05:19:19.419Z,99495.30
2023-01-29T05:22:16.462Z,99496.80
2023-01-29T05:25:24.280Z,99501.83
2023-01-29T05:28:17.972Z,99504.45
2023-01-29T05:31:12.225Z,99504.48
2023-01-29T05:34:05.979Z,99509.45
2023-01-29T05:36:59.641Z,99506.29
2023-01-29T05:39:38.476Z,99502.36
2023-01-29T05:42:32.153Z,99490.89
2023-01-29T05:45:26.200Z,99499.50
2023-01-29T05:48:19.889Z,99500.23
2023-01-29T05:51:13.602Z,99503.00
2023-01-29T05:54:07.744Z,99502.52
2023-01-29T05:57:01.466Z,99507.70
2023-01-29T05:59:55.226Z,99509.23
2023-01-29T06:02:49.047Z,99501.38
2023-01-29T06:05:43.340Z,99510.36
2023-01-29T06:08:37.248Z,99510.83
2023-01-29T06:11:31.073Z,99507.52
2023-01-29T06:14:24.735Z,99514.07
2023-01-29T06:17:21.476Z,99508.08
2023-01-29T06:19:57.877Z,99512.36
2023-01-29T06:22:51.374Z,99511.63
2023-01-29T06:25:45.095Z,99514.23
2023-01-29T06:28:38.921Z,99518.16
2023-01-29T06:31:38.690Z,99522.88
2023-01-29T06:34:32.930Z,99522.67
2023-01-29T06:37:26.783Z,99523.13
2023-01-29T06:40:21.625Z,99516.96
2023-01-29T06:43:15.502Z,99513.95
2023-01-29T06:46:13.637Z,99504.59
2023-01-29T06:49:07.326Z,99502.98
2023-01-29T06:52:01.152Z,99505.46
2023-01-29T06:54:54.828Z,99508.84
2023-01-29T06:57:48.534Z,99512.19
2023-01-29T07:00:42.691Z,99514.19
2023-01-29T07:03:36.840Z,99510.56
2023-01-29T07:06:33.690Z,99512.87
2023-01-29T07:09:27.341Z,99519.02
2023-01-29T07:12:21.052Z,99522.98
2023-01-29T07:15:19.859Z,99519.79
2023-01-29T07:18:13.846Z,99516.96
2023-01-29T07:21:10.104Z,99522.65
2023-01-29T07:24:03.836Z,99532.90
2023-01-29T07:26:57.462Z,99532.48
2023-01-29T07:29:51.202Z,99538.45
2023-01-29T07:32:44.850Z,99537.14
2023-01-29T07:35:41.739Z,99535.30
2023-01-29T07:38:35.589Z,99536.45
2023-01-29T07:41:29.263Z,99547.10
2023-01-29T07:44:22.988Z,99546.81
2023-01-29T07:47:07.443Z,99542.45
2023-01-29T07:50:01.129Z,99539.80
2023-01-29T07:52:56.631Z,99545.52
2023-01-29T07:55:50.251Z,99551.98
2023-01-29T07:58:43.998Z,99555.76
2023-01-29T08:01:37.978Z,99563.93
2023-01-29T08:04:31.687Z,99569.21
2023-01-29T08:07:25.443Z,99569.32
2023-01-29T08:10:19.754Z,99574.06
2023-01-29T08:13:13.913Z,99578.89
2023-01-29T08:16:09.354Z,99578.69
2023-01-29T08:19:04.084Z,99586.41
2023-01-29T08:21:57.803Z,99581.36
2023-01-29T08:24:53.957Z,99583.33
2023-01-29T08:27:53.704Z,99584.51
2023-01-29T08:30:47.409Z,99578.04
2023-01-29T08:33:41.130Z,99585.33
2023-01-29T08:36:35.617Z,99589.52
2023-01-29T08:39:29.580Z,99586.59
2023-01-29T08:42:23.447Z,99594.92
2023-01-29T08:45:18.096Z,99588.93
2023-01-29T08:48:12.719Z,99592.48
2023-01-29T08:51:07.209Z,99593.65
2023-01-29T08:54:01.514Z,99596.55
2023-01-29T08:56:55.272Z,99591.03
2023-01-29T08:59:49.178Z,99588.06
2023-01-29T09:02:43.898Z,99586.47
2023-01-29T09:05:39.092Z,99586.39
2023-01-29T09:08:32.778Z,99572.41
2023-01-29T09:11:26.574Z,99563.11
2023-01-29T09:14:20.633Z,99558.72
2023-01-29T09:17:14.408Z,99544.30
2023-01-29T09:20:10.661Z,99546.02
2023-01-29T09:23:08.108Z,99544.48
2023-01-29T09:26:02.170Z,99548.22
2023-01-29T09:28:56.351Z,99552.36
2023-01-29T09:31:50.257Z,99556.30
2023-01-29T09:34:26.908Z,99558.89
2023-01-29T09:37:23.454Z,99553.67
2023-01-29T09:40:26.705Z,99557.38
2023-01-29T09:43:25.507Z,99562.89
2023-01-29T09:46:27.934Z,99560.84
2023-01-29T09:49:31.573Z,99559.73
2023-01-29T09:52:31.447Z,99555.92
2023-01-29T09:55:32.518Z,99549.94
2023-01-29T09:58:33.422Z,99545.11
2023-01-29T10:01:34.320Z,99538.77
2023-01-29T10:05:00.373Z,99538.45
2023-01-29T10:08:20.683Z,99521.30
2023-01-29T10:11:31.650Z,99507.75
2023-01-29T10:14:37.881Z,99503.84
2023-01-29T10:17:51.773Z,99503.83
2023-01-29T10:21:13.557Z,99504.24
2023-01-29T10:24:25.090Z,99497.80
2023-01-29T10:27:22.772Z,99484.52
2023-01-29T10:30:48.855Z,99476.44
2023-01-29T10:34:01.535Z,99472.84
2023-01-29T10:36:58.035Z,99465.88
2023-01-29T10:39:51.916Z,99459.12
2023-01-29T10:42:53.882Z,99453.90
2023-01-29T10:45:54.979Z,99449.34
2023-01-29T10:49:03.260Z,99442.11
2023-01-29T10:52:12.342Z,99429.92
2023-01-29T10:55:21.974Z,99423.18
2023-01-29T10:58:30.958Z,99414.60
2023-01-29T11:01:27.196Z,99409.17
2023-01-29T11:04:21.206Z,99406.42
2023-01-29T11:07:19.406Z,99406.69
2023-01-29T11:10:19.744Z,99398.98
2023-01-29T11:13:18.380Z,99390.34
2023-01-29T11:16:13.254Z,99388.74
2023-01-29T11:19:07.077Z,99376.72
2023-01-29T11:22:04.298Z,99367.85
2023-01-29T11:25:19.160Z,99361.20
2023-01-29T11:27:58.504Z,99357.43
2023-01-29T11:30:53.897Z,99354.75
2023-01-29T11:33:48.179Z,99354.18
2023-01-29T11:36:42.600Z,99354.84
2023-01-29T11:39:56.506Z,99356.08
2023-01-29T11:42:51.648Z,99353.29
2023-01-29T11:45:49.048Z,99354.95
2023-01-29T11:48:52.019Z,99359.59
2023-01-29T11:52:05.693Z,99353.54
2023-01-29T11:55:05.655Z,99352.82
2023-01-29T11:58:08.021Z,99350.90
2023-01-29T12:01:03.349Z,99352.80
2023-01-29T12:03:57.322Z,99355.30
2023-01-29T12:06:54.039Z,99351.08
2023-01-29T12:09:55.731Z,99347.04
2023-01-29T12:12:49.825Z,99345.09
2023-01-29T12:15:44.718Z,99341.33
2023-01-29T12:18:44.526Z,99340.91
2023-01-29T12:21:46.135Z,99339.46
2023-01-29T12:24:50.797Z,99333.10
2023-01-29T12:27:55.009Z,99328.03
2023-01-29T12:31:04.994Z,99330.16
2023-01-29T12:34:11.693Z,99327.71
2023-01-29T12:37:38.354Z,99319.19
2023-01-29T12:40:39.439Z,99315.21
2023-01-29T12:43:40.413Z,99314.40
2023-01-29T12:46:40.397Z,99309.92
2023-01-29T12:49:43.068Z,99306.17
2023-01-29T12:52:46.090Z,99306.04
2023-01-29T12:55:47.684Z,99297.16
2023-01-29T12:58:46.735Z,99290.08
2023-01-29T13:01:48.033Z,99293.11
2023-01-29T13:04:41.834Z,99294.94
2023-01-29T13:07:59.776Z,99293.66
2023-01-29T13:10:56.083Z,99289.85
2023-01-29T13:14:00.439Z,99282.70
2023-01-29T13:16:56.709Z,99280.10
2023-01-29T13:19:54.868Z,99279.41
2023-01-29T13:22:50.104Z,99275.83
2023-01-29T13:25:44.335Z,99267.24
2023-01-29T13:28:39.317Z,99267.39
2023-01-29T13:31:36.334Z,99268.53
2023-01-29T13:34:36.027Z,99265.84
2023-01-29T13:37:35.207Z,99264.73
2023-01-29T13:40:34.744Z,99261.58
2023-01-29T13:43:34.555Z,99256.45
2023-01-29T13:46:29.878Z,99253.73
2023-01-29T13:49:37.141Z,99245.48
2023-01-29T13:52:43.163Z,99245.85
2023-01-29T13:55:39.421Z,99239.67
2023-01-29T13:59:01.759Z,99232.45
2023-01-29T14:02:25.936Z,99237.73
2023-01-29T14:06:01.976Z,99237.67
2023-01-29T14:08:55.801Z,99236.09
2023-01-29T14:11:53.626Z,99240.68
2023-01-29T14:15:27.660Z,99234.33
2023-01-29T14:18:27.095Z,99232.60
2023-01-29T14:21:29.875Z,99231.06
2023-01-29T14:24:29.832Z,99230.66
2023-01-29T14:27:26.353Z,99230.83
2023-01-29T14:30:23.914Z,99225.50
2023-01-29T14:33:36.017Z,99225.30
2023-01-29T14:36:30.404Z,99235.23
2023-01-29T14:39:34.190Z,99231.72
2023-01-29T14:42:30.901Z,99230.67
2023-01-29T14:45:32.400Z,99235.30
2023-01-29T14:48:47.463Z,99236.91
2023-01-29T14:51:45.609Z,99233.77
2023-01-29T14:54:41.800Z,99233.87
2023-01-29T14:57:36.965Z,99228.63
2023-01-29T15:00:35.682Z,99230.92
2023-01-29T15:03:45.046Z,99231.70
2023-01-29T15:06:45.824Z,99228.17
2023-01-29T15:09:47.724Z,99226.41
2023-01-29T15:12:50.269Z,99229.48
2023-01-29T15:15:52.213Z,99232.16
2023-01-29T15:18:46.855Z,99225.95
2023-01-29T15:21:40.751Z,99225.78
2023-01-29T15:24:35.018Z,99232.86
2023-01-29T15:27:29.652Z,99226.16
2023-01-29T15:30:33.618Z,99222.48
2023-01-29T15:33:28.434Z,99224.35
2023-01-29T15:36:25.502Z,99223.75
2023-01-29T15:39:25.169Z,99222.77
2023-01-29T15:42:23.673Z,99215.19
2023-01-29T15:45:31.109Z,99219.59
2023-01-29T15:48:32.925Z,99210.87
2023-01-29T15:51:29.295Z,99197.91
2023-01-29T15:54:23.055Z,99201.51
2023-01-29T15:57:25.573Z,99202.66
2023-01-29T16:00:29.724Z,99186.67
2023-01-29T16:03:28.104Z,99191.43
2023-01-29T16:06:22.718Z,99193.85
2023-01-29T16:09:23.612Z,99191.69
2023-01-29T16:12:17.808Z,99192.46
2023-01-29T16:15:36.462Z,99193.41
2023-01-29T16:18:36.521Z,99182.63
2023-01-29T16:21:35.726Z,99182.86
2023-01-29T16:24:31.329Z,99175.45
2023-01-29T16:27:27.855Z,99173.76
2023-01-29T16:30:10.618Z,99175.78
2023-01-29T16:33:07.411Z,99171.10
2023-01-29T16:36:01.237Z,99175.59
2023-01-29T16:39:00.034Z,99179.23
2023-01-29T16:42:30.258Z,99180.10
2023-01-29T16:45:33.659Z,99179.30
2023-01-29T16:48:34.618Z,99175.84
2023-01-29T16:51:32.332Z,99177.45
2023-01-29T16:54:18.380Z,99179.42
2023-01-29T16:57:05.209Z,99177.86
2023-01-29T17:00:02.530Z,99179.69
2023-01-29T17:03:01.313Z,99180.02
2023-01-29T17:05:55.534Z,99181.13
2023-01-29T17:08:50.280Z,99177.58
2023-01-29T17:11:44.802Z,99179.48
2023-01-29T17:14:42.758Z,99178.27
2023-01-29T17:17:37.705Z,99175.45
2023-01-29T17:20:33.108Z,99165.65
2023-01-29T17:23:27.030Z,99161.96
2023-01-29T17:26:24.737Z,99158.02
2023-01-29T17:29:20.059Z,99160.16
2023-01-29T17:32:17.972Z,99157.64
2023-01-29T17:35:15.478Z,99160.98
2023-01-29T17:38:24.273Z,99157.11
2023-01-29T17:41:25.811Z,99150.48
2023-01-29T17:44:19.748Z,99149.60
2023-01-29T17:47:16.722Z,99150.55
2023-01-29T17:50:22.501Z,99136.75
2023-01-29T17:53:17.060Z,99127.45
2023-01-29T17:56:17.337Z,99130.01
2023-01-29T17:59:18.540Z,99126.39
2023-01-29T18:02:29.108Z,99128.43
2023-01-29T18:05:24.096Z,99137.83
2023-01-29T18:08:23.302Z,99145.81
2023-01-29T18:11:17.288Z,99138.77
2023-01-29T18:14:14.487Z,99135.63
2023-01-29T18:17:08.472Z,99134.98
2023-01-29T18:20:02.984Z,99130.42
2023-01-29T18:23:04.530Z,99129.87
2023-01-29T18:25:59.284Z,99127.62
2023-01-29T18:28:54.009Z,99121.58
2023-01-29T18:31:50.795Z,99120.13
2023-01-29T18:34:45.232Z,99123.59
2023-01-29T18:37:39.713Z,99122.67
2023-01-29T18:40:34.654Z,99119.11
2023-01-29T18:43:31.000Z,99122.36
2023-01-29T18:46:25.167Z,99124.95
2023-01-29T18:49:19.340Z,99118.57
2023-01-29T18:52:13.192Z,99114.06
2023-01-29T18:55:09.597Z,99107.98
2023-01-29T18:58:26.701Z,99109.69
2023-01-29T19:01:18.313Z,99108.17
2023-01-29T19:04:12.319Z,99106.23
2023-01-29T19:07:06.082Z,99100.95
2023-01-29T19:10:00.003Z,99100.40
2023-01-29T19:12:53.760Z,99096.70
2023-01-29T19:15:49.060Z,99094.45
2023-01-29T19:18:43.570Z,99090.33
2023-01-29T19:21:37.418Z,99091.18
2023-01-29T19:24:37.339Z,99084.15
2023-01-29T19:27:31.644Z,99084.48
2023-01-29T19:30:25.754Z,99082.26
2023-01-29T19:33:23.175Z,99086.02
2023-01-29T19:36:17.455Z,99084.73
2023-01-29T19:39:11.529Z,99082.29
2023-01-29T19:42:05.983Z,99080.52
2023-01-29T19:44:59.748Z,99082.40
2023-01-29T19:47:54.294Z,99082.16
2023-01-29T19:50:55.947Z,99078.27
2023-01-29T19:53:50.042Z,99073.30
2023-01-29T19:56:43.935Z,99068.33
2023-01-29T19:59:37.793Z,99067.04
2023-01-29T20:02:32.552Z,99069.04
2023-01-29T20:05:27.152Z,99060.90
2023-01-29T20:08:22.267Z,99067.19
2023-01-29T20:11:19.676Z,99063.09
2023-01-29T20:14:13.720Z,99062.73
2023-01-29T20:17:07.890Z,99066.88
2023-01-29T20:20:02.562Z,99065.00
2023-01-29T20:22:57.392Z,99065.27
2023-01-29T20:25:52.212Z,99060.30
2023-01-29T20:28:48.280Z,99059.25
2023-01-29T20:31:42.395Z,99057.45
2023-01-29T20:34:36.340Z,99061.91
2023-01-29T20:37:30.015Z,99059.52
2023-01-29T20:40:24.181Z,99055.34
2023-01-29T20:43:18.368Z,99052.77
2023-01-29T20:46:13.647Z,99054.06
2023-01-29T20:49:08.182Z,99047.96
2023-01-29T20:52:01.983Z,99046.50
2023-01-29T20:54:55.818Z,99043.02
2023-01-29T20:58:05.823Z,99039.27
2023-01-29T21:01:00.628Z,99040.05
2023-01-29T21:03:54.520Z,99034.23
2023-01-29T21:06:48.234Z,99033.50
2023-01-29T21:09:42.052Z,99026.36
2023-01-29T21:12:36.015Z,99017.02
2023-01-29T21:15:29.769Z,99009.38
2023-01-29T21:18:25.738Z,99004.02
2023-01-29T21:21:19.679Z,99004.73
2023-01-29T21:24:15.282Z,99002.86
2023-01-29T21:27:10.200Z,98999.50
2023-01-29T21:30:04.499Z,98991.96
2023-01-29T21:32:38.084Z,98989.95
2023-01-29T21:35:32.154Z,98984.05
2023-01-29T21:38:26.032Z,98981.45
2023-01-29T21:41:39.949Z,98982.77
2023-01-29T21:44:33.851Z,98974.45
2023-01-29T21:47:27.932Z,98973.29
2023-01-29T21:50:22.200Z,98964.09
2023-01-29T21:53:15.990Z,98964.29
2023-01-29T21:56:10.503Z,98959.66
2023-01-29T21:59:04.372Z,98948.83
2023-01-29T22:01:59.828Z,98947.23
2023-01-29T22:05:08.809Z,98947.20
2023-01-29T22:08:11.314Z,98942.14
2023-01-29T22:11:10.697Z,98944.13
2023-01-29T22:14:05.001Z,98936.25
2023-01-29T22:16:59.036Z,98927.24
2023-01-29T22:19:53.821Z,98924.64
2023-01-29T22:22:48.549Z,98918.02
2023-01-29T22:25:43.791Z,98909.98
2023-01-29T22:28:37.755Z,98905.13
2023-01-29T22:31:31.880Z,98902.08
2023-01-29T22:34:26.075Z,98890.63
2023-01-29T22:37:19.977Z,98881.30
2023-01-29T22:40:16.572Z,98875.81
2023-01-29T22:43:12.131Z,98878.94
2023-01-29T22:46:09.767Z,98882.75
2023-01-29T22:49:03.582Z,98878.86
2023-01-29T22:52:10.916Z,98872.08
2023-01-29T22:55:05.266Z,98862.94
2023-01-29T22:57:59.439Z,98857.70
2023-01-29T23:00:55.176Z,98857.23
2023-01-29T23:03:49.087Z,98853.27
2023-01-29T23:06:43.086Z,98844.78
2023-01-29T23:09:37.033Z,98834.88
2023-01-29T23:12:31.140Z,98829.81
2023-01-29T23:15:24.849Z,98831.29
2023-01-29T23:18:18.763Z,98830.42
2023-01-29T23:21:13.562Z,98824.92
2023-01-29T23:24:09.129Z,98815.10
2023-01-29T23:27:18.286Z,98813.36
2023-01-29T23:30:15.922Z,98810.38
2023-01-29T23:33:12.132Z,98799.25
2023-01-29T23:36:07.137Z,98795.39
2023-01-29T23:39:00.894Z,98782.73
2023-01-29T23:41:54.555Z,98775.24
2023-01-29T23:44:48.368Z,98769.75
2023-01-29T23:47:42.453Z,98767.17
2023-01-29T23:50:36.351Z,98759.95
2023-01-29T23:53:30.260Z,98753.52
2023-01-29T23:56:24.511Z,98748.86
2023-01-29T23:59:18.465Z,98737.31
